CJU weather

Jeju International Airport
Jeju City, Jejudo, South Korea

Public forecast

Using degrees Celsius for public forecast. Weather courtesy of forecast.io.

Current aviation weather report (METAR) for Jeju International Airport

Retrieved 2019/10/19 06:00 UTC (23 minutes ago):

RKPC 190600Z 33005KT 280V040 9999 SCT025 21/15 Q1020 NOSIG

Aviation forecast (TAF) for Jeju International Airport

Retrieved 2019/10/19 06:00 UTC (23 minutes ago):

TAF RKPC 190500Z 1906/2012 36007KT 9999 SCT030 TN16/1920Z TX22/2005Z BECMG 1914/1915 17005KT BECMG 1923/1924 03007KT BECMG 2008/2009 12008KT